Lyon, Mississippi
Current Conditions -  °F | °C
As of 2:15 AM on Thursday 29 Jan 2015 (Local Time) from KCKM Reporting Station
Overcast Overcast  
Wind Chill: 54°   Ceiling: 4000
Heat Index: 54°   Visibility: 10mi
Dew Point: 41°   Wind: 14mph
Humidity: 62%   Direction: 170°S
Pressure: 30.09"   Gusts: NA
Location:  34.22°N, 90.54°W
Report Text: KCKM 290815Z AUTO 17012KT 10SM SCT017 OVC040 12/05 A3009 RMK AO1
Loading
Personal Weather Stations






























Interactive Weather Map New forecast layout! Learn more

10-Day Weather Forecast

Advertisements
Track Severe Weather on mobile